createdAt,value
2024-02-09T00:02:07.912Z,17.60
2024-02-09T00:04:39.626Z,16.50
2024-02-09T00:07:09.351Z,18.30
2024-02-09T00:09:38.138Z,17.40
2024-02-09T00:12:07.799Z,14.90
2024-02-09T00:14:37.165Z,18.30
2024-02-09T00:17:05.788Z,21.50
2024-02-09T00:19:35.087Z,18.40
2024-02-09T00:22:05.671Z,18.70
2024-02-09T00:24:34.602Z,17.90
2024-02-09T00:27:06.011Z,19.50
2024-02-09T00:29:34.811Z,14.80
2024-02-09T00:32:05.736Z,17.40
2024-02-09T00:34:36.439Z,16.60
2024-02-09T00:37:07.973Z,18.50
2024-02-09T00:39:36.587Z,18.80
2024-02-09T00:42:05.609Z,17.20
2024-02-09T00:44:34.482Z,19.10
2024-02-09T00:47:03.423Z,19.10
2024-02-09T00:49:33.699Z,20.60
2024-02-09T00:52:03.259Z,17.70
2024-02-09T00:54:31.814Z,19.20
2024-02-09T00:57:00.434Z,18.70
2024-02-09T00:59:28.964Z,19.20
2024-02-09T01:24:01.419Z,24.20
2024-02-09T01:26:48.609Z,22.90
2024-02-09T01:29:36.559Z,18.50
2024-02-09T01:32:23.900Z,21.20
2024-02-09T01:35:11.176Z,19.30
2024-02-09T01:37:58.358Z,17.70
2024-02-09T01:40:45.120Z,19.70
2024-02-09T01:43:32.268Z,16.40
2024-02-09T01:46:19.161Z,16.80
2024-02-09T01:49:05.974Z,17.70
2024-02-09T01:51:53.646Z,15.70
2024-02-09T01:54:41.808Z,15.70
2024-02-09T01:57:29.253Z,16.60
2024-02-09T02:00:17.142Z,17.10
2024-02-09T02:03:04.499Z,13.00
2024-02-09T02:05:52.521Z,15.80
2024-02-09T02:08:40.845Z,12.20
2024-02-09T02:11:27.473Z,15.40
2024-02-09T02:14:14.386Z,16.00
2024-02-09T02:17:01.221Z,14.50
2024-02-09T02:19:48.703Z,14.90
2024-02-09T02:22:46.298Z,15.40
2024-02-09T02:25:33.421Z,16.30
2024-02-09T02:28:20.886Z,14.40
2024-02-09T02:31:08.003Z,14.50
2024-02-09T02:33:55.051Z,13.50
2024-02-09T02:36:42.142Z,13.60
2024-02-09T02:39:29.144Z,13.80
2024-02-09T02:41:57.828Z,13.60
2024-02-09T02:44:26.352Z,14.50
2024-02-09T02:46:55.041Z,12.10
2024-02-09T02:49:41.934Z,11.80
2024-02-09T02:52:28.788Z,14.60
2024-02-09T02:55:15.925Z,12.50
2024-02-09T02:58:02.946Z,10.40
2024-02-09T03:00:49.952Z,11.30
2024-02-09T03:03:36.931Z,12.20
2024-02-09T03:06:07.401Z,11.20
2024-02-09T03:08:47.052Z,12.80
2024-02-09T03:11:18.501Z,13.20
2024-02-09T03:13:51.335Z,11.60
2024-02-09T03:16:20.761Z,11.30
2024-02-09T03:18:49.436Z,11.60
2024-02-09T03:21:28.041Z,10.70
2024-02-09T03:23:57.809Z,9.60
2024-02-09T03:26:26.651Z,11.60
2024-02-09T03:28:55.120Z,10.40
2024-02-09T03:31:25.770Z,12.90
2024-02-09T03:33:56.850Z,12.20
2024-02-09T03:36:25.626Z,11.70
2024-02-09T03:38:55.536Z,10.80
2024-02-09T03:41:26.944Z,9.90
2024-02-09T03:43:55.732Z,10.80
2024-02-09T03:46:26.847Z,9.10
2024-02-09T03:48:55.788Z,11.20
2024-02-09T03:51:26.518Z,9.10
2024-02-09T03:53:55.117Z,9.80
2024-02-09T03:56:24.030Z,8.80
2024-02-09T03:58:52.765Z,8.80
2024-02-09T04:01:24.459Z,8.90
2024-02-09T04:03:53.343Z,8.90
2024-02-09T04:06:25.894Z,9.10
2024-02-09T04:08:56.042Z,9.70
2024-02-09T04:11:25.442Z,10.40
2024-02-09T04:13:54.355Z,9.80
2024-02-09T04:16:23.183Z,10.50
2024-02-09T04:18:52.026Z,8.50
2024-02-09T04:21:20.621Z,11.50
2024-02-09T04:23:49.654Z,11.30
2024-02-09T04:26:18.306Z,12.30
2024-02-09T04:28:47.136Z,12.50
2024-02-09T04:31:16.011Z,9.20
2024-02-09T04:33:44.683Z,10.80
2024-02-09T04:36:13.478Z,9.10
2024-02-09T04:38:42.623Z,10.40
2024-02-09T04:41:11.196Z,9.20
2024-02-09T04:43:39.786Z,10.90
2024-02-09T04:46:08.790Z,10.70
2024-02-09T04:48:37.576Z,9.20
2024-02-09T04:51:10.358Z,9.70
2024-02-09T04:53:39.482Z,9.30
2024-02-09T04:56:08.025Z,9.20
2024-02-09T04:58:39.108Z,9.40
2024-02-09T05:01:10.068Z,8.50
2024-02-09T05:03:42.031Z,8.80
2024-02-09T05:06:10.783Z,10.20
2024-02-09T05:08:40.749Z,10.90
2024-02-09T05:11:09.672Z,8.50
2024-02-09T05:13:39.086Z,9.60
2024-02-09T05:16:12.315Z,10.70
2024-02-09T05:18:41.952Z,12.10
2024-02-09T05:21:12.849Z,12.20
2024-02-09T05:23:42.867Z,11.40
2024-02-09T05:26:12.414Z,10.80
2024-02-09T05:28:46.151Z,14.50
2024-02-09T05:31:24.515Z,10.20
2024-02-09T05:33:53.765Z,9.80
2024-02-09T05:36:24.991Z,10.30
2024-02-09T05:39:02.331Z,9.70
2024-02-09T05:41:32.140Z,11.10
2024-02-09T05:44:01.430Z,11.60
2024-02-09T05:46:30.333Z,11.30
2024-02-09T05:48:59.485Z,10.30
2024-02-09T05:51:28.263Z,11.40
2024-02-09T05:53:58.295Z,13.50
2024-02-09T05:56:29.191Z,13.80
2024-02-09T05:58:58.496Z,15.00
2024-02-09T06:01:34.554Z,10.40
2024-02-09T06:04:03.622Z,12.80
2024-02-09T06:06:32.536Z,14.90
2024-02-09T06:09:03.218Z,12.40
2024-02-09T06:11:31.772Z,12.60
2024-02-09T06:14:02.333Z,11.70
2024-02-09T06:16:32.361Z,11.40
2024-02-09T06:19:01.506Z,11.10
2024-02-09T06:21:30.161Z,9.40
2024-02-09T06:23:58.862Z,11.00
2024-02-09T06:26:27.499Z,9.70
2024-02-09T06:28:56.124Z,9.40
2024-02-09T06:31:28.664Z,9.50
2024-02-09T06:34:00.686Z,10.70
2024-02-09T06:36:31.172Z,13.40
2024-02-09T06:39:00.853Z,12.70
2024-02-09T06:41:30.778Z,13.70
2024-02-09T06:44:00.104Z,15.60
2024-02-09T06:46:28.908Z,10.90
2024-02-09T06:48:58.160Z,12.30
2024-02-09T06:51:26.895Z,11.50
2024-02-09T06:53:56.793Z,11.40
2024-02-09T06:56:25.744Z,15.70
2024-02-09T06:58:59.699Z,19.70
2024-02-09T07:01:32.731Z,18.90
2024-02-09T07:04:01.503Z,17.70
2024-02-09T07:06:30.167Z,13.80
2024-02-09T07:08:59.662Z,13.80
2024-02-09T07:11:50.330Z,15.80
2024-02-09T07:14:27.138Z,14.50
2024-02-09T07:19:39.863Z,9.60
2024-02-09T07:22:14.406Z,7.30
2024-02-09T07:24:46.064Z,9.70
2024-02-09T07:27:25.297Z,10.30
2024-02-09T07:29:58.948Z,10.10
2024-02-09T07:35:25.590Z,8.70
2024-02-09T07:37:59.038Z,9.00
2024-02-09T07:40:27.706Z,10.50
2024-02-09T07:42:58.497Z,10.30
2024-02-09T07:45:33.624Z,10.10
2024-02-09T07:48:11.245Z,9.10
2024-02-09T07:51:00.881Z,9.40
2024-02-09T07:53:35.721Z,10.40
2024-02-09T07:56:11.090Z,10.30
2024-02-09T07:58:53.213Z,8.80
2024-02-09T08:01:25.160Z,9.90
2024-02-09T08:04:03.568Z,10.20
2024-02-09T08:06:42.484Z,9.90
2024-02-09T08:09:26.361Z,11.80
2024-02-09T08:11:59.354Z,11.50
2024-02-09T08:14:29.982Z,11.10
2024-02-09T08:17:21.358Z,11.70
2024-02-09T08:19:52.778Z,10.30
2024-02-09T08:22:24.358Z,11.80
2024-02-09T08:24:57.490Z,10.60
2024-02-09T08:27:26.727Z,10.20
2024-02-09T08:30:05.937Z,9.40
2024-02-09T08:32:37.230Z,9.20
2024-02-09T08:35:07.637Z,9.80
2024-02-09T08:37:38.464Z,10.70
2024-02-09T08:40:11.608Z,8.20
2024-02-09T08:42:41.860Z,8.10
2024-02-09T08:45:11.777Z,11.00
2024-02-09T08:47:40.891Z,46.60
2024-02-09T08:50:09.872Z,42.20
2024-02-09T08:52:39.513Z,23.00
2024-02-09T08:55:11.159Z,35.70
2024-02-09T08:57:42.129Z,26.70
2024-02-09T09:00:21.287Z,34.90
2024-02-09T09:02:51.751Z,26.10
2024-02-09T09:05:20.484Z,21.90
2024-02-09T09:07:58.825Z,11.00
2024-02-09T09:10:28.059Z,14.40
2024-02-09T09:13:01.197Z,11.20
2024-02-09T09:15:29.968Z,10.40
2024-02-09T09:18:02.504Z,10.50
2024-02-09T09:20:31.078Z,10.50
2024-02-09T09:22:59.829Z,9.70
2024-02-09T09:25:43.321Z,10.50
2024-02-09T09:28:33.134Z,9.90
2024-02-09T09:31:02.350Z,10.90
2024-02-09T09:33:30.785Z,10.30
2024-02-09T09:36:04.308Z,10.00
2024-02-09T09:38:32.746Z,9.60
2024-02-09T09:41:01.178Z,9.50
2024-02-09T09:43:32.571Z,9.80
2024-02-09T09:46:02.117Z,9.30
2024-02-09T09:48:34.831Z,10.50
2024-02-09T09:51:21.821Z,9.40
2024-02-09T09:53:54.886Z,11.20
2024-02-09T09:56:38.035Z,11.10
2024-02-09T09:59:08.236Z,10.10
2024-02-09T10:01:50.422Z,12.00
2024-02-09T10:04:20.063Z,10.50
2024-02-09T10:06:52.140Z,10.60
2024-02-09T10:09:26.770Z,11.40
2024-02-09T10:11:55.923Z,8.60
2024-02-09T10:14:25.214Z,8.20
2024-02-09T10:16:58.302Z,10.10
2024-02-09T10:19:26.991Z,10.60
2024-02-09T10:21:58.795Z,10.80
2024-02-09T10:24:48.819Z,10.50
2024-02-09T10:27:23.916Z,10.20
2024-02-09T10:29:56.211Z,9.80
2024-02-09T10:32:44.072Z,11.10
2024-02-09T10:35:12.742Z,10.40
2024-02-09T10:38:02.126Z,10.00
2024-02-09T10:40:31.206Z,10.50
2024-02-09T10:43:13.880Z,10.70
2024-02-09T10:45:45.683Z,10.50
2024-02-09T10:48:21.383Z,11.00
2024-02-09T10:50:55.802Z,10.60
2024-02-09T10:53:28.437Z,10.30
2024-02-09T10:56:05.130Z,11.00
2024-02-09T10:58:35.436Z,10.80
2024-02-09T11:01:07.347Z,11.20
2024-02-09T11:03:35.935Z,11.60
2024-02-09T11:06:06.240Z,9.60
2024-02-09T11:08:35.645Z,9.90
2024-02-09T11:11:05.451Z,11.20
2024-02-09T11:13:35.471Z,10.90
2024-02-09T11:16:04.588Z,10.60
2024-02-09T11:18:37.565Z,11.90
2024-02-09T11:21:08.568Z,11.80
2024-02-09T11:23:38.980Z,9.80
2024-02-09T11:26:12.345Z,10.10
2024-02-09T11:28:41.890Z,9.30
2024-02-09T11:31:12.426Z,10.30
2024-02-09T11:33:43.187Z,9.70
2024-02-09T11:36:11.834Z,9.10
2024-02-09T11:38:40.484Z,9.50
2024-02-09T11:41:10.065Z,8.70
2024-02-09T11:43:38.681Z,9.00
2024-02-09T11:46:08.732Z,9.50
2024-02-09T11:48:40.728Z,8.80
2024-02-09T11:51:09.170Z,10.90
2024-02-09T11:53:39.227Z,9.80
2024-02-09T11:56:08.549Z,9.20
2024-02-09T11:58:37.823Z,9.40
2024-02-09T12:01:06.630Z,9.40
2024-02-09T12:03:35.512Z,9.50
2024-02-09T12:06:07.131Z,8.90
2024-02-09T12:08:36.017Z,9.30
2024-02-09T12:11:07.651Z,9.30
2024-02-09T12:13:40.299Z,8.80
2024-02-09T12:16:09.072Z,9.40
2024-02-09T12:18:37.366Z,8.50
2024-02-09T12:23:53.119Z,7.60
2024-02-09T12:26:26.177Z,8.00
2024-02-09T12:28:55.577Z,8.10
2024-02-09T12:31:26.111Z,9.30
2024-02-09T12:33:56.451Z,7.90
2024-02-09T12:36:43.403Z,8.10
2024-02-09T12:39:13.536Z,7.60
2024-02-09T12:41:58.207Z,7.60
2024-02-09T12:44:33.913Z,7.10
2024-02-09T12:47:08.729Z,6.80
2024-02-09T12:49:38.745Z,7.60
2024-02-09T12:52:19.539Z,7.00
2024-02-09T12:54:56.402Z,6.60
2024-02-09T12:57:25.491Z,6.60
2024-02-09T12:59:54.756Z,8.60
2024-02-09T13:23:39.498Z,8.50
2024-02-09T13:26:19.540Z,7.40
2024-02-09T13:28:48.309Z,8.40
2024-02-09T13:31:15.807Z,7.30
2024-02-09T13:33:45.283Z,8.00
2024-02-09T13:36:24.862Z,8.10
2024-02-09T13:38:54.460Z,7.80
2024-02-09T13:41:22.733Z,6.60
2024-02-09T13:43:52.532Z,7.40
2024-02-09T13:46:48.272Z,7.40
2024-02-09T13:49:15.986Z,7.50
2024-02-09T13:51:45.251Z,6.90
2024-02-09T13:54:27.400Z,6.60
2024-02-09T13:57:05.340Z,6.40
2024-02-09T13:59:36.801Z,7.50
2024-02-09T14:02:04.820Z,8.50
2024-02-09T14:04:39.791Z,7.50
2024-02-09T14:07:28.186Z,7.50
2024-02-09T14:09:56.388Z,7.40
2024-02-09T14:12:30.194Z,7.00
2024-02-09T14:14:57.505Z,7.10
2024-02-09T14:17:27.095Z,7.10
2024-02-09T14:19:54.852Z,7.40
2024-02-09T14:22:22.221Z,8.20
2024-02-09T14:25:04.710Z,7.30
2024-02-09T14:27:35.830Z,7.60
2024-02-09T14:30:11.491Z,7.90
2024-02-09T14:32:56.490Z,8.80
2024-02-09T14:35:28.058Z,10.30
2024-02-09T14:38:03.801Z,8.80
2024-02-09T14:41:02.999Z,8.70
2024-02-09T14:43:42.350Z,9.90
2024-02-09T14:49:53.246Z,10.10
2024-02-09T14:52:31.252Z,10.60
2024-02-09T14:55:29.284Z,12.40
2024-02-09T14:58:06.050Z,11.80
2024-02-09T15:00:39.122Z,12.20
2024-02-09T15:03:11.412Z,14.50
2024-02-09T15:05:46.426Z,18.20
2024-02-09T15:08:22.744Z,13.90
2024-02-09T15:10:55.030Z,14.40
2024-02-09T15:13:29.196Z,16.30
2024-02-09T15:16:05.126Z,14.90
2024-02-09T15:18:42.495Z,17.90
2024-02-09T15:21:19.452Z,15.50
2024-02-09T15:23:55.910Z,15.60
2024-02-09T15:26:33.141Z,14.40
2024-02-09T15:29:06.198Z,17.00
2024-02-09T15:31:35.421Z,17.30
2024-02-09T15:34:13.358Z,17.80
2024-02-09T15:36:48.463Z,16.70
2024-02-09T15:39:17.154Z,17.50
2024-02-09T15:41:46.747Z,16.70
2024-02-09T15:44:15.985Z,15.00
2024-02-09T15:46:50.404Z,14.60
2024-02-09T15:49:33.022Z,20.00
2024-02-09T15:52:02.937Z,15.90
2024-02-09T15:54:32.552Z,14.00
2024-02-09T15:57:11.190Z,17.30
2024-02-09T15:59:49.037Z,15.30
2024-02-09T16:02:20.962Z,16.10
2024-02-09T16:04:54.737Z,17.20
2024-02-09T16:07:23.634Z,15.90
2024-02-09T16:09:56.140Z,18.70
2024-02-09T16:12:35.277Z,18.70
2024-02-09T16:15:06.741Z,16.50
2024-02-09T16:17:52.994Z,18.60
2024-02-09T16:20:26.439Z,20.60
2024-02-09T16:22:55.472Z,19.90
2024-02-09T16:25:24.682Z,21.10
2024-02-09T16:27:54.609Z,26.80
2024-02-09T16:30:25.392Z,23.40
2024-02-09T16:33:07.615Z,24.50
2024-02-09T16:35:49.902Z,24.20
2024-02-09T16:38:18.719Z,16.20
2024-02-09T16:40:48.369Z,20.10
2024-02-09T16:43:20.143Z,20.20
2024-02-09T16:45:48.798Z,22.00
2024-02-09T16:48:17.523Z,23.20
2024-02-09T16:50:49.607Z,25.80
2024-02-09T16:53:18.294Z,23.00
2024-02-09T16:55:47.100Z,27.80
2024-02-09T16:58:15.889Z,22.60
2024-02-09T17:00:53.186Z,18.80
2024-02-09T17:03:31.123Z,22.10
2024-02-09T17:05:59.919Z,21.90
2024-02-09T17:08:34.794Z,18.70
2024-02-09T17:11:20.221Z,21.80
2024-02-09T17:14:11.804Z,21.60
2024-02-09T17:17:03.030Z,20.30
2024-02-09T17:19:36.956Z,24.80
2024-02-09T17:22:10.646Z,22.50
2024-02-09T17:24:41.589Z,22.30
2024-02-09T17:27:12.309Z,18.60
2024-02-09T17:29:53.827Z,18.70
2024-02-09T17:32:37.090Z,20.30
2024-02-09T17:35:07.886Z,23.70
2024-02-09T17:37:37.187Z,25.20
2024-02-09T17:40:07.086Z,26.60
2024-02-09T17:42:35.833Z,23.80
2024-02-09T17:45:05.437Z,26.00
2024-02-09T17:47:36.620Z,27.30
2024-02-09T17:50:07.135Z,20.20
2024-02-09T17:52:36.391Z,23.20
2024-02-09T17:55:06.262Z,21.60
2024-02-09T17:57:35.313Z,24.90
2024-02-09T18:00:07.327Z,20.10
2024-02-09T18:02:36.083Z,16.20
2024-02-09T18:05:17.121Z,18.60
2024-02-09T18:07:46.222Z,18.90
2024-02-09T18:10:18.857Z,31.90
2024-02-09T18:12:48.344Z,32.10
2024-02-09T18:15:21.437Z,34.60
2024-02-09T18:17:51.150Z,34.40
2024-02-09T18:20:23.273Z,31.50
2024-02-09T18:22:52.915Z,28.40
2024-02-09T18:25:23.141Z,24.30
2024-02-09T18:27:52.294Z,19.60
2024-02-09T18:30:22.154Z,19.60
2024-02-09T18:32:58.472Z,21.40
2024-02-09T18:35:30.468Z,21.60
2024-02-09T18:38:00.911Z,19.50
2024-02-09T18:40:29.931Z,21.40
2024-02-09T18:43:00.213Z,21.40
2024-02-09T18:45:29.255Z,25.20
2024-02-09T18:47:57.955Z,21.40
2024-02-09T18:50:27.763Z,25.70
2024-02-09T18:52:56.359Z,24.40
2024-02-09T18:56:06.123Z,22.10
2024-02-09T18:58:37.731Z,19.50
2024-02-09T19:01:11.801Z,22.90
2024-02-09T19:03:44.270Z,18.50
2024-02-09T19:06:12.798Z,16.40
2024-02-09T19:08:43.570Z,19.70
2024-02-09T19:11:14.064Z,17.20
2024-02-09T19:13:43.398Z,19.70
2024-02-09T19:16:13.188Z,18.40
2024-02-09T19:18:42.016Z,16.80
2024-02-09T19:21:15.332Z,16.40
2024-02-09T19:23:46.479Z,17.70
2024-02-09T19:26:15.173Z,18.00
2024-02-09T19:28:44.660Z,20.90
2024-02-09T19:31:16.265Z,20.30
2024-02-09T19:33:53.089Z,20.80
2024-02-09T19:36:24.111Z,16.00
2024-02-09T19:38:52.906Z,18.30
2024-02-09T19:41:24.848Z,17.00
2024-02-09T19:43:54.102Z,17.30
2024-02-09T19:46:25.227Z,14.10
2024-02-09T19:49:06.077Z,15.00
2024-02-09T19:51:39.401Z,15.10
2024-02-09T19:54:08.260Z,16.60
2024-02-09T19:56:36.989Z,16.60
2024-02-09T19:59:07.886Z,16.10
2024-02-09T20:01:36.902Z,15.80
2024-02-09T20:04:11.464Z,18.10
2024-02-09T20:06:46.351Z,17.00
2024-02-09T20:09:16.281Z,19.80
2024-02-09T20:12:13.092Z,20.60
2024-02-09T20:14:46.110Z,20.10
2024-02-09T20:17:17.448Z,18.80
2024-02-09T20:19:46.608Z,20.50
2024-02-09T20:22:15.760Z,22.90
2024-02-09T20:24:50.812Z,21.50
2024-02-09T20:27:20.276Z,24.00
2024-02-09T20:29:51.613Z,24.10
2024-02-09T20:32:21.985Z,22.70
2024-02-09T20:34:52.401Z,24.40
2024-02-09T20:37:23.452Z,26.50
2024-02-09T20:39:52.921Z,24.10
2024-02-09T20:42:22.506Z,24.60
2024-02-09T20:44:51.681Z,22.00
2024-02-09T20:47:23.900Z,20.10
2024-02-09T20:53:37.886Z,23.30
2024-02-09T20:56:07.957Z,21.10
2024-02-09T20:58:41.710Z,21.90
2024-02-09T21:01:11.785Z,23.70
2024-02-09T21:03:41.173Z,17.40
2024-02-09T21:06:13.558Z,20.00
2024-02-09T21:08:42.634Z,21.10
2024-02-09T21:11:12.133Z,22.90
2024-02-09T21:13:42.227Z,21.70
2024-02-09T21:16:12.466Z,26.50
2024-02-09T21:18:41.924Z,28.20
2024-02-09T21:21:12.583Z,26.20
2024-02-09T21:23:41.819Z,27.10
2024-02-09T21:26:10.755Z,25.00
2024-02-09T21:28:39.594Z,27.50
2024-02-09T21:31:08.554Z,29.60
2024-02-09T21:33:38.014Z,21.30
2024-02-09T21:36:08.189Z,24.60
2024-02-09T21:38:37.312Z,23.00
2024-02-09T21:41:06.081Z,22.60
2024-02-09T21:43:36.676Z,21.20
2024-02-09T21:46:07.027Z,18.90
2024-02-09T21:48:40.039Z,23.30
2024-02-09T21:51:10.855Z,21.70
2024-02-09T21:53:39.657Z,18.70
2024-02-09T21:56:11.506Z,17.50
2024-02-09T21:58:41.722Z,20.90
2024-02-09T22:01:10.635Z,18.50
2024-02-09T22:03:39.572Z,24.20
2024-02-09T22:06:08.397Z,26.50
2024-02-09T22:08:40.485Z,29.50
2024-02-09T22:11:12.418Z,27.80
2024-02-09T22:13:41.863Z,24.60
2024-02-09T22:16:10.950Z,25.90
2024-02-09T22:18:39.907Z,25.40
2024-02-09T22:21:10.113Z,27.40
2024-02-09T22:23:43.939Z,24.60
2024-02-09T22:26:15.902Z,25.40
2024-02-09T22:28:44.971Z,25.90
2024-02-09T22:31:38.160Z,25.80
2024-02-09T22:34:08.505Z,24.20
2024-02-09T22:36:37.291Z,27.30
2024-02-09T22:39:06.736Z,24.50
2024-02-09T22:41:36.700Z,21.80
2024-02-09T22:44:05.569Z,28.00
2024-02-09T22:46:35.310Z,26.90
2024-02-09T22:49:04.165Z,26.40
2024-02-09T22:51:33.488Z,22.70
2024-02-09T22:54:03.183Z,23.20
2024-02-09T22:56:32.043Z,30.20
2024-02-09T22:59:02.056Z,28.50
2024-02-09T23:01:31.603Z,27.70
2024-02-09T23:04:01.110Z,29.80
2024-02-09T23:06:32.022Z,28.90
2024-02-09T23:09:01.854Z,27.40
2024-02-09T23:11:30.675Z,29.10
2024-02-09T23:14:02.172Z,24.60
2024-02-09T23:16:30.844Z,25.20
2024-02-09T23:19:00.017Z,22.30
2024-02-09T23:21:30.993Z,23.30
2024-02-09T23:23:59.901Z,24.00
2024-02-09T23:26:29.036Z,23.80
2024-02-09T23:28:57.936Z,24.30
2024-02-09T23:31:32.265Z,22.80
2024-02-09T23:34:03.292Z,22.20
2024-02-09T23:36:34.559Z,21.90
2024-02-09T23:39:06.669Z,21.80
2024-02-09T23:41:36.722Z,23.30
2024-02-09T23:44:06.269Z,24.30
2024-02-09T23:46:37.121Z,21.50
2024-02-09T23:49:07.394Z,22.40
2024-02-09T23:51:38.011Z,20.90
2024-02-09T23:54:06.773Z,24.00
2024-02-09T23:56:36.179Z,24.40
2024-02-09T23:59:05.655Z,20.90
